OMSJ/SHJ METAR and TAF weather

Enter ICAO airport designator
Station Type Date Time Source
OMSJ METAR 2023/01/30 12:00 UTC NOAA

OMSJ 301200Z 29006KT CAVOK 23/13 Q1017 NOSIG


Station Type Date Time Source
OMSJ Decoded METAR 2023/01/30 12:00 UTC NOAA

Sharjah International Airport, United Arab Emirates (OMSJ) 25-20N 055-31E 33M
Jan 30, 2023 - 07:00 AM EST / 2023.01.30 1200 UTC
Wind: from the WNW (290 degrees) at 7 MPH (6 KT):0
Visibility: greater than 7 mile(s):0
Temperature: 73 F (23 C)
Dew Point: 55 F (13 C)
Relative Humidity: 53%
Pressure (altimeter): 30.03 in. Hg (1017 hPa)
ob: OMSJ 301200Z 29006KT CAVOK 23/13 Q1017 NOSIG
cycle: 12

Station Type Date Time Source
OMSJ TAF 2023/01/30 12:57 UTC NOAA

TAF OMSJ 301100Z 3012/3118 29010KT 8000 NSC
BECMG 3018/3020 12005KT PROB40 3020/3105 3000 HZ PROB30 3100/3104 0100 FG VV///
BECMG 3109/3111 32010KT
BECMG 3116/3118 12005KT

Example: see airport list